Terminal Aerodrome Forecast
Issued by NWS Wilmington, OH

Current Version | Previous Version | Graphics & Text | Print | Product List | Glossary On
Versions: 1 2 3 4 5 6 7 8 9 10 11 12 13 14 15 16 17 18 19 20 21 22 23 24 25
000
FTUS41 KILN 300500
TAFCVG
TAF
KCVG 300530Z 3006/3112 16005KT P6SM SKC
     FM301100 19008KT P6SM SCT060
     FM301900 21010G16KT P6SM SCT050
     FM302000 21010G16KT P6SM VCTS SCT040CB
     FM302300 21006KT P6SM VCSH SCT025 OVC120
      TEMPO 3023/3102 4SM -TSRA BR BKN025CB
     FM310200 17008KT 5SM -SHRA SCT020 OVC080=

USA.gov is the U.S. government's official web portal to all federal, state and local government web resources and services.